Accueil
METAR-TAF:

METAR-TAF

Aéroports :

Brackett Field Airport

La Verne, Californie, États-Unis

latitude: 34-06N, longitude: 117-47W, altitude: 308 m

Observation

Le bulletin a été fait il y a 33 minutes, à 23:47 UTC
Vent calme
Température 15°C
Humidité 63%
Pression 1020 hPa
Visibilité: 16.1 km
Ciel clair

METAR: KPOC 222347Z 00000KT 10SM CLR 15/08 A3012

Heure: 16:20 (00:20 UTC)


TAF: absent

Observations et prévisions météorologiques de plus de 4000 aéroports (messages METAR et TAF).

Les stations disponibles sont représentées par des disques jaunes et rouges sur la carte.

Passer la souris dessus pour voir le nom de la station.

Cliquer dessus pour voir les observations et prévisions météorologiques.

Pour changer de carte: cliquez sur les boutons verts avec une croix noire pour zoomer, sur le bouton vert avec un tiret pour effectuer un zoom arrière, ou sur les flèches vertes pour les cartes adjacentes.


METAR-TAF: